Terminal Aerodrome Forecast
Issued by NWS

Home | Current Version | Previous Version | Text Only | Print | Product List | Glossary On
Versions: 1 2 3 4 5 6 7 8 9 10 11 12 13 14 15 16 17 18 19 20 21 22 23 24 25 26 27 28 29 30 31 32 33 34 35 36 37 38 39 40 41 42 43 44 45 46 47 48
000
FTUS43 KMKX 162320
TAFUES
TAF
KUES 162320Z 1700/1724 08007KT P6SM SHRA VCTS SCT040 BKN060CB
     FM170400 13006KT 6SM SHRA VCTS SCT025 OVC035CB
     FM170800 16008KT P6SM -SHRA VCTS SCT015 OVC025CB
     FM171100 19008KT P6SM VCSH OVC015
     FM171700 23012G21KT P6SM BKN025
     FM172200 25013G23KT P6SM BKN035 WS005/26010KT=

USA.gov is the U.S. government's official web portal to all federal, state and local government web resources and services.